Time;durP1;ratioP1;P1;durP2;ratioP2;P2;SDS_P1;SDS_P2;PMS_P1;PMS_P2;Temp;Humidity;BMP_temperature;BMP_pressure;BME280_temperature;BME280_humidity;BME280_pressure;Samples;Min_cycle;Max_cycle;Signal;HPM_P1;HPM_P2
2022/09/03 00:00:32;;;;;;;3.15;2.00;;;17.60;99.90;;;16.82;77.40;96954.53;4993182;28;20502;-70
2022/09/03 00:03:03;;;;;;;10.18;2.00;;;17.60;99.90;;;16.85;75.91;96958.44;4992692;28;20413;-70
2022/09/03 00:05:37;;;;;;;8.43;1.73;;;17.60;99.90;;;16.86;73.91;96958.16;4992174;28;20896;-71
2022/09/03 00:08:11;;;;;;;5.00;1.90;;;17.60;99.90;;;16.87;72.22;96953.59;4992971;28;20827;-70
2022/09/03 00:10:49;;;;;;;2.55;1.70;;;17.60;99.90;;;16.83;77.84;96952.63;4993119;28;20406;-70
2022/09/03 00:13:22;;;;;;;3.55;2.03;;;17.50;99.90;;;16.86;74.64;96958.16;4992520;28;20453;-70
2022/09/03 00:15:50;;;;;;;6.47;1.88;;;17.60;99.90;;;16.88;73.53;96955.19;4992719;28;20415;-71
2022/09/03 00:18:21;;;;;;;6.83;1.80;;;17.60;99.90;;;16.88;70.85;96942.63;4992747;28;20501;-71
2022/09/03 00:20:52;;;;;;;4.03;2.20;;;17.50;99.90;;;16.84;73.72;96948.88;4992923;28;20406;-71
2022/09/03 00:23:22;;;;;;;5.22;1.90;;;17.50;99.90;;;16.86;69.95;96949.34;4992390;28;20453;-70
2022/09/03 00:25:58;;;;;;;3.45;1.90;;;17.50;99.90;;;16.78;75.79;96945.50;4992643;28;20407;-71
2022/09/03 00:28:32;;;;;;;3.30;1.80;;;17.50;99.90;;;16.81;73.62;96947.59;4992693;28;20403;-71
2022/09/03 00:31:06;;;;;;;5.68;1.92;;;17.50;99.90;;;16.78;75.55;96936.69;4992857;28;20435;-71
2022/09/03 00:33:34;;;;;;;3.65;2.10;;;17.50;99.90;;;16.76;78.07;96936.22;4992207;28;20410;-71
2022/09/03 00:36:11;;;;;;;7.05;1.92;;;17.50;99.90;;;16.79;73.19;96938.28;4992607;28;20410;-70
2022/09/03 00:38:37;;;;;;;5.15;1.90;;;17.50;99.90;;;16.76;75.32;96950.38;4992563;28;20446;-71
2022/09/03 00:41:15;;;;;;;6.28;2.00;;;17.50;99.90;;;16.73;77.12;96948.28;4992500;28;20565;-71
2022/09/03 00:44:01;;;;;;;3.17;1.80;;;17.50;99.90;;;16.72;80.22;96940.56;4992018;28;20971;-70
2022/09/03 00:46:35;;;;;;;4.03;2.10;;;17.50;99.90;;;16.74;81.17;96933.84;4992207;28;20805;-71
2022/09/03 00:49:24;;;;;;;4.03;2.05;;;17.50;99.90;;;16.80;78.19;96940.66;4992452;28;20486;-70
2022/09/03 00:52:00;;;;;;;4.40;2.03;;;17.50;99.90;;;16.79;80.04;96936.41;4992174;28;20860;-70
2022/09/03 00:54:39;;;;;;;6.95;2.03;;;17.50;99.90;;;16.78;77.56;96931.34;4991609;28;20420;-71
2022/09/03 00:57:24;;;;;;;3.40;2.53;;;17.50;99.90;;;16.76;79.17;96938.91;4991917;28;20916;-71
2022/09/03 01:00:00;;;;;;;8.13;2.07;;;17.50;99.90;;;16.80;74.54;96934.50;4992158;28;20406;-71
2022/09/03 01:02:36;;;;;;;4.45;1.92;;;17.50;99.90;;;16.78;73.71;96937.47;4991950;28;20410;-71
2022/09/03 01:05:09;;;;;;;5.03;2.10;;;17.50;99.90;;;16.75;77.06;96950.69;4991910;28;20394;-71
2022/09/03 01:07:46;;;;;;;3.65;1.98;;;17.50;99.90;;;16.73;77.43;96945.63;4991798;28;20402;-70
2022/09/03 01:10:31;;;;;;;5.63;1.83;;;17.50;99.90;;;16.77;72.55;96940.44;4991967;28;20406;-71
2022/09/03 01:13:08;;;;;;;7.20;2.13;;;17.50;99.90;;;16.74;74.78;96941.06;4991426;28;20482;-70
2022/09/03 01:15:47;;;;;;;6.70;1.80;;;17.40;99.90;;;16.72;76.38;96944.03;4991675;28;20512;-70
2022/09/03 01:18:24;;;;;;;4.53;1.80;;;17.40;99.90;;;16.78;69.38;96948.19;4991638;28;20491;-70
2022/09/03 01:21:12;;;;;;;3.83;1.77;;;17.40;99.90;;;16.72;75.40;96946.72;4991801;28;20432;-70
2022/09/03 01:24:06;;;;;;;4.65;1.67;;;17.40;99.90;;;16.75;68.88;96945.34;4991985;28;20406;-71
2022/09/03 01:26:54;;;;;;;5.78;1.73;;;17.40;99.90;;;16.74;69.80;96941.06;4991531;28;20405;-70
2022/09/03 01:29:27;;;;;;;5.15;1.80;;;17.40;99.90;;;16.71;72.66;96934.44;4991636;28;20413;-71
2022/09/03 01:32:06;;;;;;;4.93;1.95;;;17.40;99.90;;;16.69;73.16;96938.53;4991391;28;20449;-71
2022/09/03 01:34:50;;;;;;;2.70;1.70;;;17.40;99.90;;;16.70;74.04;96942.75;4991083;28;20398;-71
2022/09/03 01:37:30;;;;;;;6.45;2.03;;;17.40;99.90;;;16.73;72.13;96948.28;4991391;28;20441;-71
2022/09/03 01:40:08;;;;;;;7.28;1.88;;;17.40;99.90;;;16.74;66.85;96946.41;4991436;28;20403;-70
2022/09/03 01:42:50;;;;;;;2.72;1.85;;;17.40;99.90;;;16.67;73.66;96944.16;4991407;28;20395;-70
2022/09/03 01:45:34;;;;;;;5.80;1.88;;;17.40;99.90;;;16.70;76.47;96945.41;4991368;28;20861;-70
2022/09/03 01:48:29;;;;;;;8.00;2.00;;;17.40;99.90;;;16.72;77.51;96948.59;4991310;28;20399;-70
2022/09/03 01:51:05;;;;;;;4.45;1.90;;;17.40;99.90;;;16.74;72.71;96949.09;4991289;28;20493;-72
2022/09/03 01:54:06;;;;;;;6.68;2.08;;;17.50;99.90;;;16.73;76.60;96950.97;4973449;28;20411;-72
2022/09/03 01:59:17;;;;;;;6.28;2.00;;;17.50;99.90;;;16.74;78.89;96952.56;4969602;28;20436;-71
2022/09/03 02:01:52;;;;;;;5.60;1.60;;;17.50;99.90;;;16.78;71.51;96947.38;4971874;28;20484;-69
2022/09/03 02:04:23;;;;;;;4.75;1.92;;;17.50;99.90;;;16.74;77.09;96941.06;4971281;28;20585;-71
2022/09/03 02:06:51;;;;;;;3.72;1.83;;;17.50;99.90;;;16.76;72.77;96944.25;4974251;28;20468;-71
2022/09/03 02:09:18;;;;;;;4.63;1.97;;;17.50;99.90;;;16.74;73.18;96952.56;4991181;28;20485;-71
2022/09/03 02:11:52;;;;;;;3.67;1.90;;;17.40;99.90;;;16.70;78.35;96954.22;4991174;28;20469;-71
2022/09/03 02:14:19;;;;;;;8.38;1.98;;;17.40;99.90;;;16.72;76.12;96949.38;4990674;28;20409;-71
2022/09/03 02:16:46;;;;;;;4.10;1.90;;;17.40;99.90;;;16.72;77.10;96948.59;4990916;28;20428;-71
2022/09/03 02:19:15;;;;;;;4.13;2.40;;;17.40;99.90;;;16.70;78.82;96954.22;4990951;28;20402;-71
2022/09/03 02:21:49;;;;;;;3.90;1.73;;;17.40;99.90;;;16.71;81.03;96958.50;4990911;28;20484;-71
2022/09/03 02:24:15;;;;;;;4.57;1.83;;;17.50;99.90;;;16.75;75.09;96961.38;4990601;28;20410;-69
2022/09/03 02:26:41;;;;;;;3.53;1.75;;;17.50;99.90;;;16.74;74.66;96963.25;4990951;28;20618;-69
2022/09/03 02:29:07;;;;;;;4.07;1.90;;;17.40;99.90;;;16.71;74.94;96955.81;4994023;28;20403;-70
2022/09/03 02:31:33;;;;;;;4.00;2.08;;;17.40;99.90;;;16.70;77.05;96958.78;4994873;28;20409;-69
2022/09/03 02:34:00;;;;;;;4.53;1.70;;;17.40;99.90;;;16.70;75.22;96954.22;4994361;28;20402;-70
2022/09/03 02:36:31;;;;;;;5.50;2.03;;;17.40;99.90;;;16.67;73.19;96956.72;4994619;28;20406;-70
2022/09/03 02:38:57;;;;;;;3.93;1.70;;;17.40;99.90;;;16.63;71.87;96956.53;4994769;28;20767;-70
2022/09/03 02:41:26;;;;;;;4.95;2.00;;;17.40;99.90;;;16.60;68.28;96947.25;4994803;28;20840;-70
2022/09/03 02:43:59;;;;;;;5.30;1.85;;;17.30;99.90;;;16.50;72.25;96951.97;4994177;28;20413;-70
2022/09/03 02:46:33;;;;;;;4.05;2.15;;;17.20;99.90;;;16.45;77.39;96949.41;4994702;28;21354;-70
2022/09/03 02:49:00;;;;;;;3.33;2.30;;;17.20;99.90;;;16.45;80.55;96944.06;4994717;28;20402;-70
2022/09/03 02:51:30;;;;;;;6.00;2.30;;;17.20;99.90;;;16.44;82.11;96943.28;4994452;28;20402;-70
2022/09/03 02:53:56;;;;;;;4.65;1.80;;;17.20;99.90;;;16.46;73.80;96937.66;4994059;28;20398;-69
2022/09/03 02:56:24;;;;;;;2.33;2.00;;;17.20;99.90;;;16.37;78.71;96940.22;4976918;28;20418;-69
2022/09/03 02:58:50;;;;;;;6.13;1.90;;;17.10;99.90;;;16.33;80.56;96933.88;4994344;28;20406;-70
2022/09/03 03:01:16;;;;;;;5.13;1.90;;;17.10;99.90;;;16.31;81.26;96938.75;4994442;28;20460;-69
2022/09/03 03:03:42;;;;;;;5.97;1.88;;;17.10;99.90;;;16.26;81.94;96952.97;4994118;28;20760;-69
2022/09/03 03:06:11;;;;;;;4.30;2.03;;;17.10;99.90;;;16.23;82.21;96964.28;4994218;28;20498;-70
2022/09/03 03:08:37;;;;;;;3.35;1.98;;;17.00;99.90;;;16.23;78.15;96952.78;4994239;28;20485;-70
2022/09/03 03:11:03;;;;;;;6.30;2.30;;;17.00;99.90;;;16.19;78.74;96943.78;4994181;28;20441;-70
2022/09/03 03:13:30;;;;;;;5.40;2.10;;;16.90;99.90;;;16.13;81.14;96951.13;4993761;28;20402;-70
2022/09/03 03:15:57;;;;;;;4.03;2.20;;;16.90;99.90;;;16.09;81.83;96946.63;4994390;28;20452;-70
2022/09/03 03:18:23;;;;;;;6.20;2.08;;;16.90;99.90;;;16.09;75.62;96955.44;4993800;28;20982;-70
2022/09/03 03:20:50;;;;;;;4.18;2.10;;;16.80;99.90;;;16.00;80.57;96962.59;4994003;28;20406;-70
2022/09/03 03:23:17;;;;;;;4.05;2.20;;;16.80;99.90;;;15.97;82.28;96959.69;4993529;28;20542;-70
2022/09/03 03:25:43;;;;;;;2.25;1.90;;;16.80;99.90;;;15.93;83.36;96964.06;4993995;28;20912;-70
2022/09/03 03:28:09;;;;;;;3.80;2.30;;;16.80;99.90;;;15.91;84.73;96955.53;4993711;28;20402;-70
2022/09/03 03:30:38;;;;;;;3.72;2.10;;;16.70;99.90;;;15.89;85.11;96958.50;4993987;28;20485;-70
2022/09/03 03:33:06;;;;;;;3.55;2.40;;;16.70;99.90;;;15.88;86.12;96957.72;4993262;28;20407;-69
2022/09/03 03:35:32;;;;;;;4.63;2.50;;;16.70;99.90;;;15.91;84.71;96960.88;4993786;28;20395;-70
2022/09/03 03:37:58;;;;;;;4.72;2.30;;;16.70;99.90;;;15.88;83.25;96955.03;4993566;28;20418;-70
2022/09/03 03:40:26;;;;;;;4.88;2.50;;;16.70;99.90;;;15.85;82.53;96965.53;4993596;28;20408;-70
2022/09/03 03:42:52;;;;;;;2.80;2.20;;;16.70;99.90;;;15.83;80.33;96951.69;4993133;28;20951;-70
2022/09/03 03:45:18;;;;;;;7.55;2.45;;;16.60;99.90;;;15.82;79.20;96963.44;4993612;28;20410;-70
2022/09/03 03:47:44;;;;;;;3.05;2.05;;;16.60;99.90;;;15.78;81.18;96973.94;4993414;28;20398;-70
2022/09/03 03:50:10;;;;;;;6.65;2.35;;;16.50;99.90;;;15.77;81.74;96966.22;4993440;28;20460;-70
2022/09/03 03:52:36;;;;;;;5.57;1.98;;;16.60;99.90;;;15.78;76.92;96968.59;4993229;28;20915;-69
2022/09/03 03:55:03;;;;;;;4.85;2.17;;;16.50;99.90;;;15.73;81.60;96966.00;4993037;28;20473;-69
2022/09/03 03:57:31;;;;;;;6.07;2.50;;;16.50;99.90;;;15.73;81.74;96967.88;4992888;28;20824;-69
2022/09/03 03:59:57;;;;;;;2.58;2.05;;;16.50;99.90;;;15.73;84.09;96974.00;4993280;28;20418;-70
2022/09/03 04:02:23;;;;;;;4.85;2.22;;;16.50;99.90;;;15.77;85.19;96971.56;4993067;28;20418;-69
2022/09/03 04:04:49;;;;;;;3.08;2.30;;;16.50;99.90;;;15.79;86.37;96970.16;4992800;28;20792;-70
2022/09/03 04:07:15;;;;;;;3.92;1.98;;;16.60;99.90;;;15.82;81.69;96958.09;4992995;28;20403;-69
2022/09/03 04:09:41;;;;;;;6.38;2.40;;;16.60;99.90;;;15.82;84.13;96963.44;4993164;28;20418;-70
2022/09/03 04:12:07;;;;;;;5.97;2.20;;;16.60;99.90;;;15.85;79.77;96957.53;4993198;28;20828;-69
2022/09/03 04:14:34;;;;;;;2.80;2.05;;;16.60;99.90;;;15.81;83.68;96962.66;4992607;28;20446;-70
2022/09/03 04:17:01;;;;;;;3.60;2.20;;;16.60;99.90;;;15.83;84.61;96970.38;4992786;28;20418;-70
2022/09/03 04:19:30;;;;;;;3.67;2.28;;;16.60;99.90;;;15.85;85.44;96963.66;4992880;28;20410;-70
2022/09/03 04:21:56;;;;;;;3.30;2.10;;;16.60;99.90;;;15.87;85.15;96961.47;4993006;28;20406;-70
2022/09/03 04:24:22;;;;;;;4.38;2.13;;;16.60;99.90;;;15.90;82.41;96964.63;4992400;28;20410;-70
2022/09/03 04:26:49;;;;;;;4.70;2.33;;;16.60;99.90;;;15.88;85.42;96963.06;4992617;28;20394;-70
2022/09/03 04:29:15;;;;;;;3.78;2.25;;;16.70;99.90;;;15.90;86.51;96960.09;4992737;28;20414;-70
2022/09/03 04:32:51;;;;;;;4.47;2.40;;;16.70;99.90;;;15.93;84.34;96961.41;4992722;28;20509;-70
2022/09/03 04:34:28;;;;;;;5.82;2.50;;;16.70;99.90;;;15.91;86.12;96959.00;4991978;28;20414;-70
2022/09/03 04:36:56;;;;;;;5.65;2.33;;;16.70;99.90;;;15.91;81.79;96963.56;4992431;28;20505;-70
2022/09/03 04:39:22;;;;;;;3.65;2.60;;;16.60;99.90;;;15.87;84.04;96969.47;4992540;28;20914;-70
2022/09/03 04:41:48;;;;;;;6.03;2.50;;;16.60;99.90;;;15.88;85.79;96963.06;4992455;28;20414;-70
2022/09/03 04:44:15;;;;;;;6.93;2.40;;;16.60;99.90;;;15.87;83.41;96966.00;4991959;28;20489;-70
2022/09/03 04:46:42;;;;;;;5.43;2.30;;;16.60;99.90;;;15.83;78.07;96962.34;4992379;28;20765;-70
2022/09/03 04:49:09;;;;;;;5.15;2.60;;;16.50;99.90;;;15.79;81.81;96964.03;4992359;28;20406;-70
2022/09/03 04:51:37;;;;;;;4.38;2.30;;;16.50;99.90;;;15.78;82.99;96963.25;4991840;28;20943;-70
2022/09/03 04:54:03;;;;;;;3.97;2.50;;;16.50;99.90;;;15.79;83.10;96967.47;4983005;28;20460;-70
2022/09/03 04:56:33;;;;;;;3.95;2.20;;;16.50;99.90;;;15.79;83.81;96964.81;4980831;28;20502;-71
2022/09/03 04:59:02;;;;;;;7.30;2.60;;;16.50;99.90;;;15.79;83.09;96964.03;4981487;28;20414;-70
2022/09/03 05:01:30;;;;;;;6.82;2.40;;;16.50;99.90;;;15.80;75.79;96965.59;4981106;28;20456;-70
2022/09/03 05:03:59;;;;;;;3.35;2.50;;;16.50;99.90;;;15.75;80.09;96969.16;4981228;28;20484;-70
2022/09/03 05:06:26;;;;;;;3.60;2.40;;;16.50;99.90;;;15.78;80.42;96970.47;4982951;28;20410;-72
2022/09/03 05:08:53;;;;;;;3.53;2.40;;;16.50;99.90;;;15.79;82.68;96962.16;4982513;28;20402;-70
2022/09/03 05:11:20;;;;;;;5.43;2.60;;;16.50;99.90;;;15.84;84.32;96964.75;4981181;28;21004;-70
2022/09/03 05:13:47;;;;;;;6.63;2.80;;;16.60;99.90;;;15.88;84.26;96968.38;4983437;28;20471;-70
2022/09/03 05:16:14;;;;;;;6.38;2.60;;;16.60;99.90;;;15.92;85.52;96960.59;4982299;28;20412;-70
2022/09/03 05:18:41;;;;;;;4.05;2.80;;;16.70;99.90;;;15.98;86.01;96969.28;4990221;28;20419;-71
2022/09/03 05:21:11;;;;;;;4.18;2.78;;;16.70;99.90;;;16.03;87.07;96977.19;4991934;28;20476;-71
2022/09/03 05:23:41;;;;;;;5.40;3.20;;;16.80;99.90;;;16.08;86.72;96972.59;4989904;28;20778;-70
2022/09/03 05:26:10;;;;;;;4.15;3.10;;;16.80;99.90;;;16.13;86.63;96972.47;4991414;28;20413;-72
2022/09/03 05:28:39;;;;;;;4.20;2.35;;;16.80;99.90;;;16.17;85.04;96967.31;4981220;28;20417;-70
2022/09/03 05:31:08;;;;;;;3.30;2.67;;;16.90;99.90;;;16.19;85.37;96965.94;4982589;28;20778;-70
2022/09/03 05:33:34;;;;;;;3.38;2.67;;;16.90;99.90;;;16.22;86.89;96972.56;4980687;28;20437;-70
2022/09/03 05:36:02;;;;;;;4.30;2.80;;;17.00;99.90;;;16.24;84.91;96976.50;4980881;28;20750;-70
2022/09/03 05:38:30;;;;;;;5.60;2.65;;;17.00;99.90;;;16.28;86.17;96971.38;4981512;28;20430;-71
2022/09/03 05:40:58;;;;;;;4.70;2.50;;;17.00;99.90;;;16.29;86.45;96972.97;4988196;28;20403;-70
2022/09/03 05:43:24;;;;;;;6.97;2.38;;;17.00;99.90;;;16.32;86.83;96980.38;4983301;28;20495;-70
2022/09/03 05:45:50;;;;;;;5.60;2.70;;;17.00;99.90;;;16.33;86.87;96971.28;4982439;28;20839;-70
2022/09/03 05:48:16;;;;;;;4.07;2.28;;;17.00;99.90;;;16.36;86.49;96980.59;4978963;28;20886;-70
2022/09/03 05:50:42;;;;;;;7.40;2.33;;;17.10;99.90;;;16.39;87.05;96974.66;4980820;28;20409;-70
2022/09/03 05:53:07;;;;;;;3.47;2.70;;;17.10;99.90;;;16.44;86.92;96977.22;4981579;28;20501;-69
2022/09/03 05:55:35;;;;;;;4.15;2.85;;;17.10;99.90;;;16.45;85.54;96978.81;4980307;28;20408;-70
2022/09/03 05:58:01;;;;;;;5.90;3.00;;;17.20;99.90;;;16.44;83.43;96990.56;4980654;28;20516;-70
2022/09/03 06:00:27;;;;;;;8.33;2.90;;;17.20;99.90;;;16.48;84.10;96988.88;4982075;28;20423;-72
2022/09/03 06:02:53;;;;;;;6.45;3.30;;;17.20;99.90;;;16.54;86.66;96988.47;4980728;28;20445;-72
2022/09/03 06:05:20;;;;;;;4.20;3.20;;;17.20;99.90;;;16.61;87.08;96999.56;4980970;28;20426;-72
2022/09/03 06:07:48;;;;;;;8.57;3.00;;;17.30;99.90;;;16.64;86.45;96985.63;4979930;28;20459;-72
2022/09/03 06:10:16;;;;;;;7.30;2.53;;;17.30;99.90;;;16.67;86.22;96994.16;4981889;28;20430;-72
2022/09/03 06:12:48;;;;;;;5.90;2.70;;;17.30;99.90;;;16.67;85.60;96986.13;4980937;28;20412;-72
2022/09/03 06:15:15;;;;;;;5.75;2.53;;;17.40;99.90;;;16.67;85.64;96988.81;4981812;28;20410;-72
2022/09/03 06:17:41;;;;;;;5.70;2.70;;;17.40;99.90;;;16.66;85.68;96993.34;4980911;28;20430;-72
2022/09/03 06:20:08;;;;;;;5.03;2.67;;;17.30;99.90;;;16.68;86.58;96995.72;4979754;28;20922;-71
2022/09/03 06:22:34;;;;;;;6.60;2.85;;;17.40;99.90;;;16.72;86.81;96986.00;4982348;28;20498;-71
2022/09/03 06:25:00;;;;;;;10.48;3.28;;;17.40;99.90;;;16.75;85.78;96993.44;4980377;28;20433;-71
2022/09/03 06:27:28;;;;;;;5.40;2.65;;;17.40;99.90;;;16.79;85.48;96992.53;4981578;28;20759;-71
2022/09/03 06:29:57;;;;;;;5.30;3.03;;;17.40;99.90;;;16.84;84.56;97000.44;4981806;28;20460;-71
2022/09/03 06:32:23;;;;;;;5.57;3.20;;;17.50;99.90;;;16.89;84.89;96996.88;4981118;28;20419;-71
2022/09/03 06:34:49;;;;;;;8.37;2.87;;;17.60;99.90;;;16.94;84.64;97007.44;4979477;28;20408;-70
2022/09/03 06:37:15;;;;;;;8.88;2.97;;;17.60;99.90;;;17.00;84.11;97003.56;4981210;28;20982;-70
2022/09/03 06:39:41;;;;;;;5.75;2.90;;;17.60;99.90;;;17.07;84.90;97001.25;4980885;28;20551;-70
2022/09/03 06:42:08;;;;;;;7.03;3.45;;;17.70;99.90;;;17.13;86.02;97000.09;4988007;28;20496;-70
2022/09/03 06:44:34;;;;;;;7.25;2.92;;;17.80;99.90;;;17.18;85.57;97002.63;4989312;28;20421;-70
2022/09/03 06:47:02;;;;;;;5.38;2.92;;;17.80;99.90;;;17.19;81.44;97006.91;4990831;28;20892;-70
2022/09/03 06:49:27;;;;;;;7.07;2.95;;;17.80;99.90;;;17.19;78.77;97008.78;4990760;28;20488;-70
2022/09/03 06:51:53;;;;;;;4.57;2.90;;;17.90;99.90;;;17.19;78.02;97001.53;4990761;28;20411;-70
2022/09/03 06:54:19;;;;;;;6.80;2.87;;;17.80;99.90;;;17.17;76.57;97001.06;4990134;28;20892;-70
2022/09/03 06:56:45;;;;;;;7.25;3.47;;;17.80;99.90;;;17.22;77.96;97005.47;4986560;28;20425;-72
2022/09/03 06:59:13;;;;;;;4.97;3.15;;;17.80;99.90;;;17.20;76.42;96997.00;4990391;28;20493;-72
2022/09/03 07:01:39;;;;;;;8.98;3.58;;;17.90;99.90;;;17.19;76.12;96993.53;4990430;28;20761;-73
2022/09/03 07:04:08;;;;;;;7.10;3.40;;;17.80;99.90;;;17.31;79.74;96993.75;4981668;28;20410;-73
2022/09/03 07:06:37;;;;;;;6.28;3.53;;;17.90;99.90;;;17.35;79.93;96994.75;4984824;28;20916;-73
2022/09/03 07:09:03;;;;;;;5.57;3.50;;;18.00;99.90;;;17.35;77.75;96991.28;4971116;28;20911;-73
2022/09/03 07:11:32;;;;;;;6.45;3.45;;;18.00;99.90;;;17.44;80.95;96996.69;4986803;28;20426;-73
2022/09/03 07:13:59;;;;;;;5.90;3.80;;;18.10;99.90;;;17.49;82.13;96991.22;4986738;28;20485;-73
2022/09/03 07:16:27;;;;;;;8.27;3.65;;;18.10;99.90;;;17.51;80.65;96997.84;4985824;28;20416;-73
2022/09/03 07:18:55;;;;;;;6.83;3.43;;;18.10;99.90;;;17.57;82.34;96995.84;4989757;28;20520;-73
2022/09/03 07:21:24;;;;;;;5.10;3.55;;;18.20;99.90;;;17.64;82.56;97005.06;4990448;28;20441;-73
2022/09/03 07:23:52;;;;;;;6.07;3.40;;;18.30;99.90;;;17.72;84.22;97007.00;4992804;28;20494;-73
2022/09/03 07:26:20;;;;;;;3.90;3.38;;;18.40;99.90;;;17.82;85.01;97010.53;4990140;28;20429;-73
2022/09/03 07:28:47;;;;;;;4.95;3.15;;;18.40;99.90;;;17.91;85.85;97009.44;4986413;28;20418;-73
2022/09/03 07:31:24;;;;;;;7.17;3.43;;;18.50;99.90;;;17.98;85.69;96995.63;4989625;28;20506;-73
2022/09/03 07:33:53;;;;;;;5.28;3.65;;;18.60;99.90;;;18.09;85.75;96997.75;4990565;28;20402;-72
2022/09/03 07:36:20;;;;;;;4.47;3.60;;;18.70;99.90;;;18.14;85.02;97000.28;4988884;28;20418;-72
2022/09/03 07:38:47;;;;;;;6.18;3.72;;;18.70;99.90;;;18.18;84.88;97000.47;4984197;28;20431;-72
2022/09/03 07:41:14;;;;;;;4.93;3.50;;;18.80;99.90;;;18.22;84.66;97006.75;4988604;28;20435;-72
2022/09/03 07:43:43;;;;;;;7.78;3.30;;;18.80;99.90;;;18.26;84.89;97005.06;4972897;28;20418;-72
2022/09/03 07:46:11;;;;;;;5.73;3.20;;;18.80;99.90;;;18.31;85.08;97014.84;4989067;28;20425;-74
2022/09/03 07:48:38;;;;;;;4.87;3.40;;;18.90;99.90;;;18.35;85.55;97019.25;4993154;28;20414;-74
2022/09/03 07:51:04;;;;;;;7.65;3.50;;;18.90;99.90;;;18.36;83.73;97015.47;4993159;28;20402;-74
2022/09/03 07:53:30;;;;;;;5.40;3.40;;;19.00;99.90;;;18.43;84.49;97018.50;4992638;28;20805;-75
2022/09/03 07:56:04;;;;;;;3.80;3.37;;;19.00;99.90;;;18.47;84.61;97027.53;4993303;28;20521;-75
2022/09/03 07:58:30;;;;;;;4.55;3.63;;;19.00;99.90;;;18.50;84.10;97021.53;4993844;23;20918;-76
2022/09/03 08:00:56;;;;;;;4.77;3.40;;;19.10;99.90;;;18.54;84.68;97027.84;4972285;28;20410;-76
2022/09/03 08:03:22;;;;;;;6.45;3.25;;;19.10;99.90;;;18.58;83.99;97020.00;4972612;28;20495;-76
2022/09/03 08:05:48;;;;;;;5.97;3.60;;;19.20;99.90;;;18.66;84.08;97026.50;4971137;28;20416;-76
2022/09/03 08:08:16;;;;;;;5.03;3.13;;;19.20;99.90;;;18.74;84.39;97023.84;4980860;28;20429;-76
2022/09/03 08:10:42;;;;;;;5.72;3.55;;;19.30;99.90;;;18.82;83.81;97027.63;4975611;28;20417;-75
2022/09/03 08:13:10;;;;;;;6.50;3.53;;;19.40;99.90;;;18.92;84.14;97027.34;4992555;28;20414;-75
2022/09/03 08:15:39;;;;;;;10.55;3.42;;;19.50;99.90;;;19.01;83.87;97027.38;4992981;28;20490;-75
2022/09/03 08:18:05;;;;;;;4.43;3.30;;;19.60;99.90;;;19.10;82.52;97022.78;4992693;28;20542;-77
2022/09/03 08:20:31;;;;;;;4.40;3.33;;;19.70;99.90;;;19.28;82.12;97025.19;4992715;28;20429;-75
2022/09/03 08:23:01;;;;;;;4.50;3.50;;;19.80;99.90;;;19.48;83.00;97037.19;4974940;28;20425;-77
2022/09/03 08:25:28;;;;;;;5.63;3.47;;;20.00;99.90;;;19.71;82.71;97027.84;4991993;28;20430;-77
2022/09/03 08:27:56;;;;;;;3.90;3.40;;;20.20;99.90;;;19.94;81.87;97033.03;4992624;28;20395;-76
2022/09/03 08:30:25;;;;;;;3.23;2.90;;;20.40;99.90;;;20.23;81.82;97032.31;4992652;28;20925;-76
2022/09/03 08:32:51;;;;;;;3.95;3.13;;;20.70;99.90;;;20.41;81.07;97045.41;4992157;28;20406;-76
2022/09/03 08:35:17;;;;;;;3.30;3.00;;;20.90;99.90;;;20.55;80.54;97036.31;4989860;28;20402;-76
2022/09/03 08:37:43;;;;;;;4.55;3.38;;;21.00;99.90;;;20.68;81.17;97030.72;4972633;28;20428;-74
2022/09/03 08:40:09;;;;;;;3.20;2.70;;;21.10;99.90;;;20.82;81.15;97030.50;4972884;28;20412;-75
2022/09/03 08:42:56;;;;;;;5.20;2.95;;;21.20;99.90;;;20.86;79.31;97031.41;4989608;28;20419;-75
2022/09/03 08:45:25;;;;;;;5.63;2.88;;;21.30;99.90;;;20.93;77.72;97036.28;4990396;28;20494;-74
2022/09/03 08:48:00;;;;;;;6.63;2.90;;;21.40;99.90;;;20.97;75.63;97042.59;4990861;28;20612;-72
2022/09/03 08:50:34;;;;;;;2.78;2.40;;;21.40;99.90;;;20.93;75.77;97044.34;4989005;28;20924;-77
2022/09/03 08:53:08;;;;;;;3.50;2.78;;;21.40;99.90;;;20.90;75.39;97048.47;4972119;28;20498;-74
2022/09/03 08:55:43;;;;;;;6.68;3.00;;;21.40;99.90;;;20.87;73.11;97051.84;4982342;28;20410;-73
2022/09/03 08:58:13;;;;;;;4.32;2.88;;;21.40;99.90;;;20.88;74.23;97056.09;4990418;28;20422;-72
2022/09/03 09:00:50;;;;;;;4.97;2.85;;;21.30;99.90;;;20.88;75.13;97058.00;4990857;28;20441;-74
2022/09/03 09:03:37;;;;;;;4.22;3.00;;;21.30;99.90;;;20.78;74.15;97056.47;4990491;28;20413;-74
2022/09/03 09:06:19;;;;;;;5.55;3.08;;;21.30;99.90;;;20.67;71.82;97063.34;4990770;28;20437;-74
2022/09/03 09:09:04;;;;;;;6.53;3.35;;;21.20;99.90;;;20.56;70.40;97067.50;4990632;28;20422;-74
2022/09/03 09:11:45;;;;;;;3.65;3.13;;;21.10;99.90;;;20.58;71.85;97067.97;4988708;28;20407;-73
2022/09/03 09:14:21;;;;;;;4.25;3.33;;;21.10;99.90;;;20.61;73.18;97075.38;4986167;28;20819;-73
2022/09/03 09:17:00;;;;;;;5.65;3.53;;;21.10;99.90;;;20.57;72.11;97072.56;4983386;28;20448;-74
2022/09/03 09:19:41;;;;;;;5.57;3.10;;;21.10;99.90;;;20.64;74.03;97078.22;4980878;28;20886;-75
2022/09/03 09:22:11;;;;;;;5.57;3.40;;;21.10;99.90;;;20.60;71.44;97079.97;4966204;28;20422;-72
2022/09/03 09:24:43;;;;;;;4.88;3.25;;;21.10;99.90;;;20.61;71.45;97075.38;4985045;28;20432;-74
2022/09/03 09:27:15;;;;;;;5.57;3.03;;;21.10;99.90;;;20.75;72.65;97074.03;4967761;28;20516;-75
2022/09/03 09:29:44;;;;;;;4.97;3.10;;;21.20;99.90;;;20.92;73.95;97075.84;4981510;28;20404;-74
2022/09/03 09:32:13;;;;;;;4.75;3.28;;;21.30;99.90;;;20.98;70.53;97077.25;4974059;28;20408;-75
2022/09/03 09:34:43;;;;;;;6.30;3.22;;;21.50;99.90;;;21.08;71.05;97071.50;4977939;28;20426;-75
2022/09/03 09:37:12;;;;;;;5.07;3.38;;;21.50;99.90;;;21.14;70.21;97075.56;4960979;28;20418;-74
2022/09/03 09:39:39;;;;;;;4.57;3.00;;;21.60;99.90;;;21.15;70.51;97066.38;4985769;28;20419;-74
2022/09/03 09:42:08;;;;;;;6.43;3.33;;;21.60;99.90;;;21.22;69.97;97073.97;4984063;28;20473;-74
2022/09/03 09:44:35;;;;;;;5.38;2.72;;;21.70;99.90;;;21.37;69.75;97070.69;4989001;28;20469;-76
2022/09/03 09:47:05;;;;;;;3.45;2.75;;;21.80;99.90;;;21.66;70.60;97067.13;4990420;28;20399;-77
2022/09/03 09:49:36;;;;;;;5.45;3.00;;;22.10;99.90;;;21.83;70.78;97068.88;4990702;28;20430;-77
2022/09/03 09:52:06;;;;;;;5.43;2.93;;;22.30;99.90;;;21.96;69.39;97067.81;4990442;28;20402;-75
2022/09/03 09:54:33;;;;;;;3.85;2.85;;;22.40;99.90;;;22.07;69.68;97058.22;4988472;28;20407;-75
2022/09/03 09:57:02;;;;;;;6.07;2.80;;;22.50;99.90;;;22.07;67.76;97063.63;4990269;28;20403;-75
2022/09/03 09:59:29;;;;;;;5.43;2.85;;;22.50;99.20;;;22.07;67.69;97065.53;4980516;28;20404;-75
2022/09/03 10:02:10;;;;;;;4.63;2.93;;;22.50;98.70;;;22.03;69.34;97067.31;4983702;28;20920;-74
2022/09/03 10:04:39;;;;;;;6.78;2.85;;;22.50;99.90;;;22.02;68.80;97073.81;4986836;28;20924;-74
2022/09/03 10:07:26;;;;;;;4.88;2.70;;;22.40;99.80;;;21.94;68.13;97073.56;4987625;28;20469;-74
2022/09/03 10:10:01;;;;;;;4.38;2.80;;;22.40;99.00;;;21.86;66.10;97068.22;4976197;28;20406;-75
2022/09/03 10:12:35;;;;;;;5.75;3.25;;;22.30;96.50;;;21.81;65.24;97071.13;4981249;28;20454;-75
2022/09/03 10:15:20;;;;;;;4.20;2.78;;;22.30;95.20;;;21.75;64.00;97069.75;4988101;28;20407;-75
2022/09/03 10:18:02;;;;;;;4.00;2.72;;;22.20;94.90;;;21.76;65.06;97074.81;4969587;28;20519;-75
2022/09/03 10:20:38;;;;;;;4.72;2.83;;;22.20;95.50;;;21.88;68.49;97074.06;4969956;28;20404;-75
2022/09/03 10:23:17;;;;;;;8.57;3.08;;;22.30;97.90;;;21.87;66.88;97061.72;4969098;28;20886;-74
2022/09/03 10:26:01;;;;;;;6.65;3.50;;;22.40;96.80;;;21.83;65.73;97061.59;4970703;28;20419;-76
2022/09/03 10:28:29;;;;;;;6.20;2.97;;;22.30;95.60;;;21.94;66.28;97059.28;4971441;28;20507;-76
2022/09/03 10:31:16;;;;;;;5.27;2.73;;;22.40;96.00;;;22.09;67.21;97057.91;4971374;28;20558;-76
2022/09/03 10:33:49;;;;;;;6.07;3.58;;;22.50;97.00;;;22.14;62.55;97047.69;4977599;28;20402;-76
2022/09/03 10:36:25;;;;;;;6.80;3.33;;;22.60;92.70;;;22.18;62.43;97056.66;4990676;28;20896;-75